St George Airport
PAPB : now visible

Airfield :











YOU CAN JOIN US ON...

 
LOGIN :

Register | Disclaimer

   EN    FR    IT 

 









Legend :    VFR   Marginal VFR   IFR   Intensive IFR   Very Intensive IFR
Visi :
Ceiling :
>= 8 km
>= 3000ft
5 to 8 km
1000 to 3000 ft
1500m to 5 km
500 to 1000 ft
800 to 1500m
200 to 500 ft
< 800m
< 200 ft
Symbols :   Thunderstorms  Fog  Heavy snow  Heavy precipitations  Wind > 20 kt






- Airport Elevation : 125 ft
- IATA code : PBV


PAPB - St George

CURRENT METAR :
  • 020653Z AUTO 19008KT 10SM CLR M01/M03 A3026 RMK AO2 SLP234 T10111028 TSNO $

EXPIRED METARs :
  • 020553Z AUTO 20004KT 10SM FEW025 M01/M03 A3026 RMK AO2 SLP234 T10061033 10022 21011 TSNO $
  • 020453Z AUTO 21004KT 10SM CLR 01/M02 A3024 RMK AO2 SLP228 T00111022 TSNO $

TAF N/A



MET'MAP, your aeronautical weather chart ! - Copyright ORBIFLY December 2007 - Disclaimer

ORBIFLY MET'MAP TEAM :

Programming & Development : Alexandra Zaïnal
Concept & original design : Baudouin d'Aumeries
Assistance for programming : Marc-Olivier Méhu
Technical & hardware support : Manuel Goepfert

Contact : metmap@orbifly.com




SOURCES & CREDITS :

   NOAA       Earth
Advisory